Time;durP1;ratioP1;P1;durP2;ratioP2;P2;SDS_P1;SDS_P2;PMS_P1;PMS_P2;Temp;Humidity;BMP_temperature;BMP_pressure;BME280_temperature;BME280_humidity;BME280_pressure;Samples;Min_cycle;Max_cycle;Signal;HPM_P1;HPM_P2
2022/03/13 00:00:10;;;;;;;18.03;10.30;;;;;;;0.76;100.00;95290.38;5053079;28;20191;-56
2022/03/13 00:02:35;;;;;;;18.17;11.67;;;;;;;0.69;100.00;95300.94;5068861;28;20238;-57
2022/03/13 00:05:01;;;;;;;15.67;10.10;;;;;;;0.61;99.70;95299.19;5052249;28;20180;-45
2022/03/13 00:07:28;;;;;;;18.80;9.47;;;;;;;0.57;99.86;95298.31;5052314;28;20176;-45
2022/03/13 00:09:54;;;;;;;15.83;9.83;;;;;;;0.53;100.00;95294.75;5053985;28;20231;-62
2022/03/13 00:12:26;;;;;;;15.83;10.00;;;;;;;0.49;100.00;95293.88;5056414;28;20292;-62
2022/03/13 00:14:53;;;;;;;16.90;10.83;;;;;;;0.49;100.00;95287.72;5056414;28;20188;-61
2022/03/13 00:17:20;;;;;;;18.53;10.87;;;;;;;0.47;100.00;95298.78;5055983;28;20180;-61
2022/03/13 00:19:46;;;;;;;18.07;11.70;;;;;;;0.48;100.00;95292.31;5055760;28;20184;-61
2022/03/13 00:22:12;;;;;;;17.47;10.97;;;;;;;0.49;100.00;95288.50;5055794;28;20192;-61
2022/03/13 00:24:38;;;;;;;17.47;10.40;;;;;;;0.47;99.22;95296.09;5055799;28;20210;-63
2022/03/13 00:27:04;;;;;;;19.77;9.97;;;;;;;0.48;98.88;95292.31;5056969;28;20217;-56
2022/03/13 00:29:30;;;;;;;17.43;10.43;;;;;;;0.54;98.63;95290.94;5055362;28;20235;-58
2022/03/13 00:31:56;;;;;;;17.67;10.10;;;;;;;0.53;100.00;95284.00;5055831;28;20226;-57
2022/03/13 00:34:21;;;;;;;20.50;10.47;;;;;;;0.52;99.14;95287.81;5055798;28;20195;-58
2022/03/13 00:36:47;;;;;;;15.70;10.27;;;;;;;0.50;99.80;95290.06;5055650;28;20228;-58
2022/03/13 00:39:12;;;;;;;17.93;10.00;;;;;;;0.48;99.61;95292.31;5055345;28;20182;-58
2022/03/13 00:41:38;;;;;;;17.20;10.43;;;;;;;0.45;100.00;95294.88;5055580;28;20311;-62
2022/03/13 00:44:05;;;;;;;16.73;10.30;;;;;;;0.42;100.00;95293.66;5055542;28;20203;-57
2022/03/13 00:46:31;;;;;;;16.87;10.67;;;;;;;0.38;100.00;95292.00;5055518;28;20195;-59
2022/03/13 00:48:56;;;;;;;20.00;10.20;;;;;;;0.33;100.00;95284.19;5055621;28;20254;-56
2022/03/13 00:51:21;;;;;;;17.60;9.90;;;;;;;0.34;100.00;95280.38;5056909;28;20200;-57
2022/03/13 00:53:47;;;;;;;15.17;9.83;;;;;;;0.30;100.00;95274.13;5055099;28;20191;-58
2022/03/13 00:56:12;;;;;;;16.93;10.47;;;;;;;0.27;100.00;95275.59;5055260;28;20190;-57
2022/03/13 00:58:42;;;;;;;17.17;10.63;;;;;;;0.24;100.00;95270.13;5055622;28;20357;-57
2022/03/13 01:01:25;;;;;;;15.10;9.87;;;;;;;0.22;100.00;95267.00;5055369;28;20194;-57
2022/03/13 01:03:52;;;;;;;16.13;10.20;;;;;;;0.19;100.00;95263.09;5055483;28;20207;-57
2022/03/13 01:06:19;;;;;;;16.53;9.40;;;;;;;0.15;100.00;95251.50;5055302;28;20193;-58
2022/03/13 01:08:46;;;;;;;14.03;9.77;;;;;;;0.10;100.00;95259.75;5054923;28;20194;-58
2022/03/13 01:11:13;;;;;;;16.43;10.27;;;;;;;0.07;100.00;95249.69;5055385;28;20184;-57
2022/03/13 01:13:39;;;;;;;16.40;10.47;;;;;;;0.07;100.00;95249.69;5054940;28;20552;-57
2022/03/13 01:16:22;;;;;;;14.63;9.60;;;;;;;0.03;100.00;95248.81;5055255;28;20182;-57
2022/03/13 01:18:51;;;;;;;15.77;9.73;;;;;;;0.01;100.00;95240.34;5055433;28;20284;-57
2022/03/13 01:21:17;;;;;;;14.03;9.10;;;;;;;-0.01;100.00;95242.56;5054862;28;20190;-56
2022/03/13 01:23:54;;;;;;;14.93;9.37;;;;;;;-0.02;100.00;95235.66;5054948;28;20256;-56
2022/03/13 01:26:22;;;;;;;13.67;8.93;;;;;;;-0.05;100.00;95239.00;5055331;28;20182;-56
2022/03/13 01:28:56;;;;;;;15.13;8.70;;;;;;;-0.08;100.00;95239.69;5054588;28;20559;-57
2022/03/13 01:31:30;;;;;;;16.73;10.00;;;;;;;-0.08;100.00;95234.31;5054811;28;20269;-57
2022/03/13 01:33:59;;;;;;;15.13;9.67;;;;;;;-0.10;100.00;95239.25;5055041;28;20191;-56
2022/03/13 01:36:25;;;;;;;16.57;10.03;;;;;;;-0.12;100.00;95230.75;5054826;28;20186;-57
2022/03/13 01:38:59;;;;;;;19.10;11.13;;;;;;;-0.13;100.00;95235.34;5054907;28;20533;-44
2022/03/13 01:41:27;;;;;;;15.07;9.93;;;;;;;-0.18;100.00;95232.13;5055103;28;20205;-61
2022/03/13 01:43:53;;;;;;;18.10;9.90;;;;;;;-0.20;100.00;95237.03;5054659;28;20186;-62
2022/03/13 01:46:18;;;;;;;18.07;10.63;;;;;;;-0.21;100.00;95243.53;5054498;28;20238;-62
2022/03/13 01:49:02;;;;;;;16.53;10.90;;;;;;;-0.22;100.00;95236.56;5054562;28;20190;-62
2022/03/13 01:51:30;;;;;;;15.60;10.17;;;;;;;-0.27;100.00;95234.13;5054619;28;20282;-61
2022/03/13 01:53:58;;;;;;;16.27;10.53;;;;;;;-0.30;100.00;95235.59;5054405;28;20211;-62
2022/03/13 01:56:23;;;;;;;15.13;9.93;;;;;;;-0.27;100.00;95231.47;5054612;28;20203;-57
2022/03/13 01:58:55;;;;;;;17.37;10.63;;;;;;;-0.27;100.00;95226.88;5054257;28;20196;-63
2022/03/13 02:01:22;;;;;;;18.00;10.37;;;;;;;-0.27;100.00;95236.81;5054782;28;20191;-64
2022/03/13 02:03:48;;;;;;;14.37;9.50;;;;;;;-0.32;100.00;95234.38;5054332;28;20203;-63
2022/03/13 02:06:14;;;;;;;16.17;9.60;;;;;;;-0.36;100.00;95231.56;5054549;28;20206;-63
2022/03/13 02:08:40;;;;;;;14.67;9.27;;;;;;;-0.35;100.00;95235.06;5054003;28;20214;-64
2022/03/13 02:11:07;;;;;;;16.53;10.07;;;;;;;-0.37;100.00;95231.91;5054400;28;20298;-63
2022/03/13 02:13:33;;;;;;;16.73;9.87;;;;;;;-0.39;100.00;95236.84;5054255;28;20215;-62
2022/03/13 02:15:58;;;;;;;15.17;9.23;;;;;;;-0.41;100.00;95223.78;5054276;28;20186;-62
2022/03/13 02:18:24;;;;;;;13.83;9.50;;;;;;;-0.44;100.00;95224.44;5054002;28;20255;-60
2022/03/13 02:20:49;;;;;;;14.77;9.33;;;;;;;-0.42;100.00;95221.44;5054109;28;20224;-60
2022/03/13 02:23:26;;;;;;;18.30;9.20;;;;;;;-0.44;100.00;95229.03;5053828;28;20187;-60
2022/03/13 02:25:53;;;;;;;14.53;9.27;;;;;;;-0.46;100.00;95226.69;5054270;28;20197;-59
2022/03/13 02:28:21;;;;;;;15.23;9.27;;;;;;;-0.48;100.00;95222.78;5053881;28;20276;-60
2022/03/13 02:30:47;;;;;;;17.77;9.33;;;;;;;-0.51;100.00;95220.78;5053994;28;20183;-60
2022/03/13 02:33:17;;;;;;;14.63;9.40;;;;;;;-0.55;100.00;95230.59;5052828;28;20211;-57
2022/03/13 02:35:42;;;;;;;16.43;9.53;;;;;;;-0.56;100.00;95226.34;5054542;28;20197;-58
2022/03/13 02:38:08;;;;;;;14.87;9.13;;;;;;;-0.60;100.00;95225.47;5053621;28;20185;-58
2022/03/13 02:40:34;;;;;;;14.83;8.87;;;;;;;-0.62;100.00;95222.38;5053711;28;20183;-57
2022/03/13 02:42:59;;;;;;;13.87;9.03;;;;;;;-0.67;100.00;95219.88;5053851;28;20210;-57
2022/03/13 02:45:36;;;;;;;14.73;8.97;;;;;;;-0.71;100.00;95224.34;5054194;28;20220;-58
2022/03/13 02:48:03;;;;;;;13.97;8.77;;;;;;;-0.74;100.00;95217.00;5053887;28;20182;-58
2022/03/13 02:50:30;;;;;;;12.93;9.00;;;;;;;-0.77;100.00;95220.34;5053520;28;20548;-61
2022/03/13 02:52:55;;;;;;;15.57;8.50;;;;;;;-0.77;100.00;95209.63;5053509;28;20222;-58
2022/03/13 02:55:21;;;;;;;17.10;9.07;;;;;;;-0.78;100.00;95229.50;5053252;28;20256;-56
2022/03/13 02:57:46;;;;;;;12.57;7.57;;;;;;;-0.79;100.00;95219.91;5053514;28;20183;-57
2022/03/13 03:00:12;;;;;;;14.47;7.93;;;;;;;-0.77;100.00;95225.69;5053529;28;20182;-57
2022/03/13 03:02:38;;;;;;;15.40;8.27;;;;;;;-0.74;100.00;95219.66;5053272;28;20224;-58
2022/03/13 03:05:07;;;;;;;14.63;9.20;;;;;;;-0.70;100.00;95215.19;5053423;28;20182;-58
2022/03/13 03:07:34;;;;;;;15.80;8.13;;;;;;;-0.70;100.00;95232.06;5053166;28;20233;-58
2022/03/13 03:10:00;;;;;;;15.17;8.60;;;;;;;-0.71;100.00;95225.16;5053387;28;20182;-46
2022/03/13 03:12:27;;;;;;;12.97;8.17;;;;;;;-0.69;100.00;95228.25;5053335;28;20174;-59
2022/03/13 03:14:53;;;;;;;12.00;7.60;;;;;;;-0.71;100.00;95230.50;5053148;28;20207;-60
2022/03/13 03:17:19;;;;;;;13.27;8.53;;;;;;;-0.72;100.00;95223.56;5053236;28;20259;-59
2022/03/13 03:19:45;;;;;;;14.10;8.83;;;;;;;-0.71;100.00;95229.72;5053535;28;20183;-59
2022/03/13 03:22:10;;;;;;;13.13;7.97;;;;;;;-0.73;100.00;95237.34;5053011;28;20183;-59
2022/03/13 03:24:38;;;;;;;14.40;8.57;;;;;;;-0.77;100.00;95236.41;5052869;28;20197;-59
2022/03/13 03:27:04;;;;;;;13.10;8.67;;;;;;;-0.80;100.00;95237.09;5053169;28;20186;-58
2022/03/13 03:29:30;;;;;;;14.23;7.93;;;;;;;-0.85;100.00;95235.41;5052914;28;20231;-59
2022/03/13 03:31:56;;;;;;;12.60;8.50;;;;;;;-0.87;100.00;95236.88;5053002;28;20268;-60
2022/03/13 03:34:24;;;;;;;12.87;8.50;;;;;;;-0.91;100.00;95241.34;5053347;28;20206;-59
2022/03/13 03:36:58;;;;;;;14.70;8.60;;;;;;;-0.95;100.00;95235.84;5052704;28;20248;-59
2022/03/13 03:39:26;;;;;;;16.63;8.97;;;;;;;-0.97;100.00;95237.31;5053341;28;20196;-59
2022/03/13 03:41:53;;;;;;;12.43;8.17;;;;;;;-0.99;100.00;95231.50;5052852;28;20300;-59
2022/03/13 03:44:20;;;;;;;15.93;8.87;;;;;;;-0.96;100.00;95238.88;5052731;28;20201;-59
2022/03/13 03:46:47;;;;;;;14.23;8.70;;;;;;;-0.96;100.00;95233.50;5053175;28;20178;-58
2022/03/13 03:49:13;;;;;;;14.07;8.17;;;;;;;-0.98;100.00;95235.75;5052638;28;20241;-43
2022/03/13 03:51:39;;;;;;;12.30;8.23;;;;;;;-0.97;100.00;95242.66;5052386;28;20185;-44
2022/03/13 03:54:05;;;;;;;13.60;8.40;;;;;;;-1.00;100.00;95243.34;5053211;28;20206;-44
2022/03/13 03:56:31;;;;;;;14.40;8.13;;;;;;;-1.05;100.00;95240.88;5053367;28;20285;-43
2022/03/13 03:58:57;;;;;;;13.93;8.30;;;;;;;-1.08;100.00;95250.38;5052371;28;20308;-44
2022/03/13 04:01:22;;;;;;;12.23;8.20;;;;;;;-1.10;100.00;95255.25;5052855;28;20190;-43
2022/03/13 04:03:48;;;;;;;13.73;8.63;;;;;;;-1.14;100.00;95253.56;5052503;28;20209;-58
2022/03/13 04:06:14;;;;;;;12.17;7.80;;;;;;;-1.19;100.00;95251.13;5053210;28;20190;-59
2022/03/13 04:08:40;;;;;;;12.83;8.07;;;;;;;-1.22;100.00;95251.78;5052265;28;20187;-59
2022/03/13 04:11:08;;;;;;;10.80;7.73;;;;;;;-1.24;100.00;95254.03;5052960;28;20261;-60
2022/03/13 04:13:35;;;;;;;12.00;7.43;;;;;;;-1.26;100.00;95258.91;5052310;28;20229;-61
2022/03/13 04:16:01;;;;;;;13.27;7.93;;;;;;;-1.25;100.00;95252.44;5052509;28;20186;-60
2022/03/13 04:18:26;;;;;;;13.50;7.90;;;;;;;-1.25;100.00;95255.13;5052812;28;20196;-59
2022/03/13 04:20:51;;;;;;;14.30;7.93;;;;;;;-1.28;100.00;95247.78;5052323;28;20181;-61
2022/03/13 04:23:17;;;;;;;14.53;8.23;;;;;;;-1.28;100.00;95255.81;5052138;28;20174;-44
2022/03/13 04:25:42;;;;;;;12.90;8.10;;;;;;;-1.31;100.00;95249.19;5053137;28;20217;-64
2022/03/13 04:28:10;;;;;;;11.90;8.53;;;;;;;-1.32;100.00;95246.84;5052185;28;20276;-64
2022/03/13 04:30:39;;;;;;;12.00;8.10;;;;;;;-1.34;100.00;95249.09;5052119;28;20240;-64
2022/03/13 04:33:05;;;;;;;13.10;8.77;;;;;;;-1.38;100.00;95250.88;5051777;28;20206;-63
2022/03/13 04:35:30;;;;;;;12.73;8.50;;;;;;;-1.40;100.00;95255.75;5052311;28;20233;-63
2022/03/13 04:37:55;;;;;;;15.20;8.27;;;;;;;-1.41;100.00;95259.56;5052112;28;20174;-64
2022/03/13 04:40:21;;;;;;;11.43;8.23;;;;;;;-1.43;100.00;95269.78;5052189;28;20217;-64
2022/03/13 04:42:46;;;;;;;12.63;8.43;;;;;;;-1.44;100.00;95266.34;5052033;28;20182;-60
2022/03/13 04:45:12;;;;;;;15.00;8.43;;;;;;;-1.44;100.00;95270.91;5052017;28;20178;-58
2022/03/13 04:47:37;;;;;;;13.03;8.60;;;;;;;-1.45;100.00;95264.75;5052168;28;20231;-57
2022/03/13 04:50:03;;;;;;;12.67;8.00;;;;;;;-1.47;100.00;95271.56;5051968;28;20213;-56
2022/03/13 04:52:28;;;;;;;11.97;8.10;;;;;;;-1.51;100.00;95265.31;5051952;28;20189;-57
2022/03/13 04:54:54;;;;;;;13.80;8.43;;;;;;;-1.54;100.00;95268.63;5051867;28;20235;-55
2022/03/13 04:57:19;;;;;;;15.03;8.83;;;;;;;-1.56;100.00;95258.25;5054812;28;20197;-55
2022/03/13 04:59:45;;;;;;;12.30;8.20;;;;;;;-1.53;100.00;95281.69;5055473;28;20225;-56
2022/03/13 05:02:10;;;;;;;13.77;8.03;;;;;;;-1.53;100.00;95283.59;5055215;28;20198;-45
2022/03/13 05:04:35;;;;;;;11.10;7.53;;;;;;;-1.55;100.00;95280.47;5055198;28;20190;-44
2022/03/13 05:07:01;;;;;;;13.70;8.00;;;;;;;-1.53;100.00;95278.25;5055197;28;20213;-43
2022/03/13 05:09:27;;;;;;;14.13;8.20;;;;;;;-1.55;100.00;95285.81;5055207;28;20200;-43
2022/03/13 05:11:52;;;;;;;12.37;7.87;;;;;;;-1.57;100.00;95285.38;5055545;28;20190;-43
2022/03/13 05:14:18;;;;;;;11.63;8.23;;;;;;;-1.62;100.00;95290.91;5055097;28;20209;-44
2022/03/13 05:16:43;;;;;;;13.10;7.50;;;;;;;-1.63;100.00;95284.00;5055420;28;20304;-42
2022/03/13 05:19:08;;;;;;;12.57;8.23;;;;;;;-1.61;100.00;95282.56;5055074;28;20236;-60
2022/03/13 05:21:36;;;;;;;15.00;8.10;;;;;;;-1.64;100.00;95293.16;5054949;28;20197;-44
2022/03/13 05:24:02;;;;;;;12.27;8.33;;;;;;;-1.67;100.00;95293.81;5054942;28;20182;-45
2022/03/13 05:26:28;;;;;;;13.40;8.30;;;;;;;-1.71;100.00;95290.22;5054953;28;20189;-46
2022/03/13 05:28:53;;;;;;;12.07;7.80;;;;;;;-1.68;100.00;95292.25;5054922;28;20212;-44
2022/03/13 05:31:19;;;;;;;12.50;8.60;;;;;;;-1.68;100.00;95292.25;5054961;28;20182;-43
2022/03/13 05:33:44;;;;;;;13.63;8.97;;;;;;;-1.66;100.00;95300.72;5054731;28;20207;-43
2022/03/13 05:36:09;;;;;;;15.30;9.33;;;;;;;-1.64;100.00;95298.50;5055283;28;20217;-59
2022/03/13 05:38:35;;;;;;;13.30;7.87;;;;;;;-1.63;100.00;95300.06;5054686;28;20216;-58
2022/03/13 05:41:01;;;;;;;16.13;8.57;;;;;;;-1.46;100.00;95305.28;5054710;28;20186;-58
2022/03/13 05:43:27;;;;;;;12.87;8.00;;;;;;;-1.18;100.00;95306.25;5054716;28;20251;-58
2022/03/13 05:45:52;;;;;;;11.67;8.03;;;;;;;-0.88;100.00;95310.31;5054611;28;20182;-60
2022/03/13 05:48:18;;;;;;;13.77;8.13;;;;;;;-0.58;100.00;95304.44;5054662;28;20189;-59
2022/03/13 05:50:44;;;;;;;13.33;8.60;;;;;;;-0.25;100.00;95310.47;5054919;28;20186;-59
2022/03/13 05:53:10;;;;;;;15.23;8.93;;;;;;;0.10;100.00;95312.66;5054137;28;20211;-59
2022/03/13 05:55:36;;;;;;;12.27;8.97;;;;;;;0.44;100.00;95317.50;5054316;28;20251;-58
2022/03/13 05:58:02;;;;;;;13.80;8.70;;;;;;;0.95;100.00;95322.75;5054364;28;20192;-61
2022/03/13 06:00:29;;;;;;;14.43;8.93;;;;;;;1.64;100.00;95320.31;5054579;28;20206;-61
2022/03/13 06:02:55;;;;;;;14.23;8.90;;;;;;;2.31;100.00;95311.84;5054022;28;20220;-62
2022/03/13 06:05:21;;;;;;;16.73;10.03;;;;;;;2.98;97.16;95314.00;5054314;28;20196;-59
2022/03/13 06:07:48;;;;;;;14.47;9.23;;;;;;;3.73;89.91;95310.66;5054290;28;20198;-60
2022/03/13 06:10:14;;;;;;;13.53;9.23;;;;;;;4.16;84.00;95316.38;5054617;28;20182;-61
2022/03/13 06:12:40;;;;;;;15.33;10.10;;;;;;;4.25;81.00;95310.69;5054132;28;20191;-45
2022/03/13 06:15:07;;;;;;;16.53;10.90;;;;;;;4.70;79.61;95310.56;5054532;28;20211;-63
2022/03/13 06:17:40;;;;;;;15.53;10.63;;;;;;;4.88;76.57;95319.66;5054269;28;20291;-60
2022/03/13 06:20:07;;;;;;;14.03;9.80;;;;;;;4.93;75.28;95316.63;5054300;28;20185;-59
2022/03/13 06:22:33;;;;;;;14.50;10.77;;;;;;;5.25;73.81;95323.94;5054444;28;20211;-58
2022/03/13 06:24:59;;;;;;;14.33;10.27;;;;;;;5.71;70.77;95319.75;5054455;28;20205;-58
2022/03/13 06:27:24;;;;;;;14.80;10.47;;;;;;;5.73;68.41;95316.69;5054225;28;20221;-57
2022/03/13 06:29:49;;;;;;;14.47;10.63;;;;;;;5.93;69.33;95312.63;5054369;28;20276;-59
2022/03/13 06:32:15;;;;;;;12.70;10.17;;;;;;;6.31;65.82;95310.19;5053808;28;20202;-59
2022/03/13 06:34:41;;;;;;;12.67;9.10;;;;;;;6.36;64.38;95306.34;5055130;28;20548;-59
2022/03/13 06:37:08;;;;;;;13.10;9.87;;;;;;;6.65;63.08;95318.91;5053903;28;20205;-59
2022/03/13 06:39:33;;;;;;;11.40;9.83;;;;;;;6.92;62.05;95317.50;5054912;28;20405;-63
2022/03/13 06:41:59;;;;;;;13.07;9.90;;;;;;;7.13;60.18;95312.16;5053820;28;20308;-60
2022/03/13 06:44:24;;;;;;;16.43;10.53;;;;;;;7.14;60.25;95312.94;5054264;28;20189;-52
2022/03/13 06:46:52;;;;;;;14.23;10.13;;;;;;;7.54;58.05;95316.13;5070288;28;20187;-59
2022/03/13 06:49:17;;;;;;;12.77;10.73;;;;;;;7.73;56.79;95318.53;5053886;28;20200;-60
2022/03/13 06:51:43;;;;;;;14.37;10.50;;;;;;;8.19;56.50;95322.03;5053290;28;20307;-60
2022/03/13 06:54:09;;;;;;;11.43;9.57;;;;;;;8.69;53.01;95314.59;5053328;28;21382;-45
2022/03/13 06:56:36;;;;;;;12.90;10.23;;;;;;;8.69;52.69;95328.22;5053350;28;20186;-45
2022/03/13 06:59:05;;;;;;;15.17;10.40;;;;;;;8.53;52.37;95328.63;5053640;28;20198;-46
2022/03/13 07:01:31;;;;;;;12.97;11.03;;;;;;;9.38;51.28;95332.66;5053168;28;20182;-45
2022/03/13 07:03:57;;;;;;;17.63;13.63;;;;;;;9.60;49.58;95328.63;5053861;28;20220;-45
2022/03/13 07:06:22;;;;;;;11.97;10.07;;;;;;;10.31;48.21;95325.44;5053013;28;20181;-46
2022/03/13 07:08:47;;;;;;;12.73;10.13;;;;;;;11.02;46.13;95329.81;5052823;28;20216;-63
2022/03/13 07:11:15;;;;;;;13.80;10.83;;;;;;;11.30;44.63;95326.75;5053369;28;20219;-55
2022/03/13 07:13:44;;;;;;;12.33;10.23;;;;;;;11.60;44.05;95334.19;5053463;28;20206;-54
2022/03/13 07:16:10;;;;;;;15.37;11.43;;;;;;;12.06;42.67;95328.88;5053174;28;20182;-56
2022/03/13 07:18:36;;;;;;;12.60;11.07;;;;;;;12.34;42.00;95328.41;5052534;28;20189;-56
2022/03/13 07:21:01;;;;;;;12.33;11.03;;;;;;;12.36;40.83;95328.78;5053179;28;20203;-56
2022/03/13 07:23:26;;;;;;;12.93;10.87;;;;;;;12.38;41.28;95331.88;5053249;28;20182;-56
2022/03/13 07:25:52;;;;;;;13.53;10.40;;;;;;;13.03;39.53;95331.16;5053152;28;20182;-56
2022/03/13 07:28:18;;;;;;;11.40;10.20;;;;;;;12.78;39.52;95330.81;5053066;28;20193;-58
2022/03/13 07:30:44;;;;;;;13.00;10.60;;;;;;;12.82;40.27;95326.81;5052873;28;20188;-56
2022/03/13 07:33:10;;;;;;;12.10;10.23;;;;;;;13.14;39.60;95335.25;5053235;28;20193;-57
2022/03/13 07:35:36;;;;;;;13.37;10.70;;;;;;;13.17;39.30;95330.91;5052709;28;20174;-58
2022/03/13 07:38:01;;;;;;;12.63;10.70;;;;;;;14.11;38.40;95327.34;5052991;28;20259;-57
2022/03/13 07:40:26;;;;;;;14.97;10.93;;;;;;;14.34;37.42;95328.00;5052830;28;20185;-57
2022/03/13 07:42:52;;;;;;;14.70;10.97;;;;;;;14.68;36.11;95322.81;5052693;28;20189;-57
2022/03/13 07:45:18;;;;;;;13.27;10.73;;;;;;;14.53;36.58;95335.38;5052699;28;20216;-57
2022/03/13 07:47:44;;;;;;;14.83;11.40;;;;;;;14.85;36.10;95321.63;5052636;28;20186;-59
2022/03/13 07:50:09;;;;;;;13.50;12.10;;;;;;;15.27;35.81;95320.47;5052591;28;20190;-60
2022/03/13 07:52:35;;;;;;;15.93;11.83;;;;;;;15.49;34.46;95317.94;5052652;28;20182;-60
2022/03/13 07:55:01;;;;;;;15.03;12.00;;;;;;;14.68;35.62;95322.06;5052843;28;20198;-60
2022/03/13 07:57:28;;;;;;;13.10;10.53;;;;;;;14.28;35.63;95315.97;5052753;28;20185;-60
2022/03/13 07:59:54;;;;;;;11.87;10.50;;;;;;;14.27;37.33;95316.41;5052467;28;20186;-60
2022/03/13 08:02:19;;;;;;;12.93;11.03;;;;;;;14.92;35.83;95315.94;5052482;28;20208;-60
2022/03/13 08:04:44;;;;;;;13.37;10.90;;;;;;;14.97;36.17;95311.91;5052272;28;20255;-60
2022/03/13 08:07:10;;;;;;;12.87;11.57;;;;;;;15.91;34.88;95314.72;5052559;28;20239;-61
2022/03/13 08:09:35;;;;;;;13.07;10.90;;;;;;;16.74;34.08;95314.47;5053561;28;20178;-63
2022/03/13 08:12:02;;;;;;;13.73;10.97;;;;;;;17.73;32.33;95312.56;5052296;28;20186;-62
2022/03/13 08:14:27;;;;;;;12.97;11.57;;;;;;;17.41;31.05;95312.94;5051530;28;20190;-63
2022/03/13 08:16:53;;;;;;;13.73;10.53;;;;;;;17.33;31.75;95311.66;5051984;28;20184;-60
2022/03/13 08:19:18;;;;;;;11.67;10.47;;;;;;;17.02;32.71;95316.28;5052335;28;20188;-61
2022/03/13 08:21:44;;;;;;;12.60;11.30;;;;;;;16.77;31.85;95313.59;5051815;28;20217;-59
2022/03/13 08:24:09;;;;;;;13.07;11.00;;;;;;;17.06;32.47;95320.47;5052773;28;20212;-59
2022/03/13 08:26:38;;;;;;;12.20;10.30;;;;;;;17.47;31.82;95316.69;5052472;28;20185;-59
2022/03/13 08:29:05;;;;;;;14.47;11.40;;;;;;;17.37;31.58;95306.78;5052160;28;20177;-58
2022/03/13 08:31:32;;;;;;;13.33;11.63;;;;;;;17.03;32.31;95309.53;5053934;28;20192;-58
2022/03/13 08:33:57;;;;;;;13.27;11.87;;;;;;;17.59;31.19;95313.09;5055619;28;20197;-59
2022/03/13 08:36:23;;;;;;;12.93;11.43;;;;;;;17.67;31.53;95319.91;5055537;28;20190;-58
2022/03/13 08:38:48;;;;;;;16.47;14.33;;;;;;;18.85;30.54;95305.38;5055684;28;20186;-59
2022/03/13 08:41:13;;;;;;;14.90;12.73;;;;;;;19.04;29.71;95304.16;5055874;28;20186;-64
2022/03/13 08:43:39;;;;;;;18.60;16.67;;;;;;;19.94;28.89;95304.16;5055507;28;20213;-61
2022/03/13 08:46:05;;;;;;;14.17;12.67;;;;;;;20.10;27.91;95303.81;5055531;28;20193;-61
2022/03/13 08:48:30;;;;;;;15.80;12.53;;;;;;;20.10;27.86;95301.03;5056027;28;20191;-62
2022/03/13 08:50:57;;;;;;;16.47;14.63;;;;;;;19.80;27.77;95304.78;5055398;28;20297;-60
2022/03/13 08:53:23;;;;;;;17.33;13.00;;;;;;;19.67;28.45;95307.00;5072242;28;20188;-60
2022/03/13 08:55:48;;;;;;;15.60;12.33;;;;;;;18.45;29.52;95307.41;5055760;28;20189;-60
2022/03/13 08:58:14;;;;;;;13.53;11.83;;;;;;;18.64;29.96;95304.25;5055914;28;20189;-60
2022/03/13 09:00:41;;;;;;;14.43;12.83;;;;;;;19.45;28.73;95304.38;5055196;28;20251;-48
2022/03/13 09:03:07;;;;;;;14.37;12.83;;;;;;;19.13;28.74;95301.44;5055659;28;20255;-59
2022/03/13 09:05:32;;;;;;;13.60;11.83;;;;;;;19.31;29.24;95307.75;5055322;28;20205;-59
2022/03/13 09:07:58;;;;;;;13.93;12.53;;;;;;;20.04;28.32;95294.59;5055014;28;20181;-59
2022/03/13 09:10:23;;;;;;;14.43;12.87;;;;;;;20.66;27.97;95297.59;5055039;28;20205;-59
2022/03/13 09:12:49;;;;;;;14.88;13.38;;;;;;;20.85;27.03;95302.56;5055717;28;20182;-59
2022/03/13 09:15:14;;;;;;;15.18;13.60;;;;;;;20.59;27.68;95298.72;5055351;28;20272;-58
2022/03/13 09:17:39;;;;;;;16.17;14.10;;;;;;;20.72;26.85;95296.47;5055043;28;20178;-59
2022/03/13 09:20:05;;;;;;;15.55;13.95;;;;;;;20.23;27.20;95298.84;5054803;28;20188;-60
2022/03/13 09:22:32;;;;;;;16.67;13.93;;;;;;;20.59;26.75;95298.72;5054811;28;20192;-60
2022/03/13 09:24:58;;;;;;;16.40;13.05;;;;;;;20.33;27.46;95296.81;5055695;28;20271;-60
2022/03/13 09:27:25;;;;;;;13.98;12.57;;;;;;;20.91;27.07;95292.34;5054781;28;20185;-61
2022/03/13 09:29:50;;;;;;;16.80;14.02;;;;;;;21.42;26.92;95297.72;5055307;28;20193;-60
2022/03/13 09:32:16;;;;;;;16.17;14.48;;;;;;;21.13;26.58;95303.94;5054901;28;20182;-59
2022/03/13 09:34:41;;;;;;;17.58;15.80;;;;;;;21.40;26.48;95289.84;5054921;28;20231;-58
2022/03/13 09:37:06;;;;;;;14.98;13.50;;;;;;;21.16;26.17;95300.22;5054978;28;20182;-59
2022/03/13 09:39:32;;;;;;;16.63;13.85;;;;;;;21.18;26.81;95294.19;5054968;28;20189;-61
2022/03/13 09:41:57;;;;;;;17.65;13.80;;;;;;;21.03;26.16;95294.16;5054384;28;20220;-62
2022/03/13 09:44:24;;;;;;;15.95;14.25;;;;;;;21.04;26.66;95290.13;5054558;28;20232;-61
2022/03/13 09:46:49;;;;;;;16.05;14.40;;;;;;;21.63;26.51;95291.81;5054621;28;20259;-60
2022/03/13 09:49:20;;;;;;;16.63;14.25;;;;;;;21.50;25.70;95284.97;5054381;28;20221;-61
2022/03/13 09:51:45;;;;;;;13.38;12.05;;;;;;;21.68;25.04;95293.91;5054790;28;20186;-61
2022/03/13 09:54:11;;;;;;;13.95;12.45;;;;;;;21.69;24.52;95287.13;5055533;28;20178;-61
2022/03/13 09:56:38;;;;;;;12.98;11.68;;;;;;;22.14;24.10;95291.47;5054396;28;20213;-60
2022/03/13 09:59:03;;;;;;;15.23;12.90;;;;;;;22.16;24.97;95295.31;5054210;28;20178;-60
2022/03/13 10:01:29;;;;;;;14.73;12.63;;;;;;;21.58;24.78;95291.72;5054264;28;20208;-60
2022/03/13 10:03:54;;;;;;;20.10;16.55;;;;;;;21.42;25.66;95292.91;5054695;28;20205;-60
2022/03/13 10:06:20;;;;;;;16.70;14.75;;;;;;;21.12;25.64;95291.31;5071127;28;20193;-60
2022/03/13 10:08:45;;;;;;;14.90;13.40;;;;;;;21.50;25.56;95282.97;5054241;28;20177;-60
2022/03/13 10:11:11;;;;;;;15.35;12.77;;;;;;;21.95;24.26;95288.13;5054597;28;20182;-47
2022/03/13 10:13:39;;;;;;;15.93;13.48;;;;;;;21.11;24.67;95289.78;5054645;28;20210;-57
2022/03/13 10:16:07;;;;;;;17.40;15.07;;;;;;;21.02;25.24;95280.75;5054682;28;20186;-61
2022/03/13 10:18:33;;;;;;;15.50;13.65;;;;;;;21.05;25.86;95279.78;5054122;28;20190;-61
2022/03/13 10:21:07;;;;;;;15.52;13.93;;;;;;;20.69;26.07;95280.00;5053899;28;20227;-62
2022/03/13 10:23:32;;;;;;;14.68;13.18;;;;;;;21.05;25.35;95280.53;5054480;28;20209;-61
2022/03/13 10:25:57;;;;;;;15.57;13.23;;;;;;;20.96;25.67;95272.28;5053941;28;20186;-61
2022/03/13 10:28:31;;;;;;;15.05;13.45;;;;;;;21.43;24.60;95271.47;5053912;28;20181;-61
2022/03/13 10:30:59;;;;;;;15.23;12.73;;;;;;;21.73;24.70;95278.63;5054448;28;20190;-60
2022/03/13 10:33:35;;;;;;;15.63;13.10;;;;;;;21.82;24.82;95265.38;5054380;28;20190;-61
2022/03/13 10:36:09;;;;;;;14.25;12.77;;;;;;;20.98;25.00;95269.03;5053769;28;20178;-61
2022/03/13 10:38:35;;;;;;;15.30;11.90;;;;;;;21.18;24.39;95258.06;5053850;28;20197;-61
2022/03/13 10:41:08;;;;;;;15.85;12.80;;;;;;;21.69;24.83;95262.09;5053796;28;20174;-60
2022/03/13 10:43:36;;;;;;;15.40;12.98;;;;;;;21.44;24.36;95250.75;5053921;28;20198;-60
2022/03/13 10:46:01;;;;;;;14.45;12.95;;;;;;;21.09;24.32;95261.69;5054443;28;20236;-59
2022/03/13 10:48:37;;;;;;;13.52;12.15;;;;;;;21.51;24.66;95256.72;5054176;28;20177;-59
2022/03/13 10:51:04;;;;;;;14.27;12.88;;;;;;;21.92;24.30;95258.50;5054030;28;20239;-59
2022/03/13 10:53:31;;;;;;;16.15;14.45;;;;;;;21.75;24.60;95256.69;5052471;28;20231;-59
2022/03/13 10:56:08;;;;;;;18.35;15.25;;;;;;;22.25;24.34;95258.25;5053446;28;20196;-59
2022/03/13 10:58:36;;;;;;;17.77;15.93;;;;;;;22.14;24.52;95255.28;5053403;28;20186;-59
2022/03/13 11:01:07;;;;;;;16.77;14.63;;;;;;;21.66;24.81;95254.72;5053265;28;20189;-59
2022/03/13 11:03:34;;;;;;;14.80;13.20;;;;;;;22.08;24.74;95260.78;5053031;28;20229;-59
2022/03/13 11:06:00;;;;;;;13.45;12.05;;;;;;;21.55;23.99;95268.41;5053359;28;20186;-60
2022/03/13 11:08:26;;;;;;;15.48;13.88;;;;;;;20.58;25.26;95257.53;5053916;28;20265;-59
2022/03/13 11:10:53;;;;;;;15.88;14.05;;;;;;;21.01;25.60;95259.78;5053373;28;20232;-59
2022/03/13 11:13:20;;;;;;;17.02;15.15;;;;;;;21.05;25.93;95252.78;5053569;28;20311;-59
2022/03/13 11:15:47;;;;;;;16.40;13.90;;;;;;;21.34;25.43;95252.84;5053248;28;20285;-60